Time;durP1;ratioP1;P1;durP2;ratioP2;P2;SDS_P1;SDS_P2;PMS_P1;PMS_P2;Temp;Humidity;BMP_temperature;BMP_pressure;BME280_temperature;BME280_humidity;BME280_pressure;Samples;Min_cycle;Max_cycle;Signal;HPM_P1;HPM_P2
2022/08/12 00:44:14;;;;;;;1.80;1.70;;;;;;;14.07;91.73;102181.38;4975366;28;20300;-50
2022/08/12 00:46:52;;;;;;;4.53;1.95;;;;;;;13.83;91.29;102191.09;4975666;28;20173;-49
2022/08/12 00:49:19;;;;;;;2.65;1.83;;;;;;;13.75;92.11;102190.44;4975315;28;20170;-51
2022/08/12 00:52:06;;;;;;;5.07;1.70;;;;;;;13.89;92.29;102187.34;4975666;28;20162;-50
2022/08/12 00:54:37;;;;;;;2.80;1.35;;;;;;;14.07;91.64;102202.94;4975377;28;20196;-51
2022/08/12 00:57:06;;;;;;;1.75;1.65;;;;;;;14.13;91.08;102197.38;4974835;28;20171;-51
2022/08/12 00:59:34;;;;;;;1.50;1.45;;;;;;;14.14;90.70;102198.25;4975543;28;20181;-51
2022/08/12 01:02:02;;;;;;;2.13;1.73;;;;;;;13.91;91.16;102198.97;4975230;28;20225;-50
2022/08/12 01:12:57;;;;;;;2.85;1.70;;;;;;;14.09;93.37;102189.44;4974878;28;20194;-51
2022/08/12 01:15:23;;;;;;;1.70;1.60;;;;;;;14.08;92.78;102198.44;4975303;28;20605;-51
2022/08/12 01:17:49;;;;;;;2.42;1.73;;;;;;;13.93;92.43;102187.22;4975209;28;20577;-51
2022/08/12 01:20:25;;;;;;;1.90;1.67;;;;;;;13.79;92.38;102182.22;4973409;28;20277;-51
2022/08/12 01:23:12;;;;;;;3.13;1.83;;;;;;;14.00;92.53;102178.00;4974171;28;20209;-50
2022/08/12 01:25:43;;;;;;;4.50;1.70;;;;;;;13.74;92.30;102183.31;4988660;28;20169;-51
2022/08/12 01:28:12;;;;;;;1.95;1.52;;;;;;;13.54;93.55;102187.47;4994453;28;20184;-51
2022/08/12 01:30:41;;;;;;;2.88;1.70;;;;;;;13.71;94.05;102189.66;4993690;28;20189;-53
2022/08/12 01:33:14;;;;;;;2.55;1.75;;;;;;;13.74;94.32;102184.19;4993669;28;20197;-51
2022/08/12 01:35:47;;;;;;;4.18;2.00;;;;;;;13.65;93.99;102184.44;4993117;28;20586;-52
2022/08/12 01:38:18;;;;;;;2.88;1.70;;;;;;;13.80;94.34;102186.69;4993935;28;20162;-50
2022/08/12 01:40:46;;;;;;;1.70;1.55;;;;;;;13.87;93.92;102190.09;4994240;28;20252;-51
2022/08/12 01:43:20;;;;;;;2.55;1.88;;;;;;;13.92;93.71;102188.13;4993508;28;20209;-53
2022/08/12 01:46:18;;;;;;;2.60;1.90;;;;;;;13.68;92.95;102199.63;4993970;28;20173;-52
2022/08/12 01:49:02;;;;;;;1.70;1.60;;;;;;;13.84;92.86;102195.56;4993227;28;20173;-50
2022/08/12 01:51:41;;;;;;;1.90;1.67;;;;;;;13.83;92.28;102190.22;4993950;28;20245;-52
2022/08/12 01:54:12;;;;;;;1.92;1.77;;;;;;;13.60;92.75;102192.66;4993508;28;20185;-51
2022/08/12 01:56:54;;;;;;;2.20;1.77;;;;;;;13.60;93.25;102189.09;4994083;28;20169;-50
2022/08/12 01:59:57;;;;;;;1.92;1.80;;;;;;;13.68;93.84;102184.34;4993947;28;20185;-50
2022/08/12 02:02:29;;;;;;;1.92;1.70;;;;;;;13.58;93.76;102189.13;4993588;28;20215;-50
2022/08/12 02:11:28;;;;;;;3.80;1.80;;;;;;;13.39;94.32;102179.81;4992010;28;20595;-51
2022/08/12 02:14:30;;;;;;;2.38;1.70;;;;;;;13.40;94.51;102184.25;4993435;28;20228;-51
2022/08/12 02:17:17;;;;;;;2.72;2.30;;;;;;;13.33;94.54;102178.16;4993432;28;20181;-51
2022/08/12 02:19:47;;;;;;;3.15;1.98;;;;;;;13.30;95.06;102172.88;4993504;28;20224;-51
2022/08/12 02:22:16;;;;;;;2.42;1.90;;;;;;;13.22;95.31;102176.69;4993320;28;20216;-50
2022/08/12 02:24:44;;;;;;;1.85;1.75;;;;;;;13.22;96.02;102174.00;4993248;28;20699;-51
2022/08/12 02:27:12;;;;;;;2.28;1.65;;;;;;;13.27;96.54;102166.66;4993037;28;20177;-52
2022/08/12 02:29:39;;;;;;;2.90;1.90;;;;;;;13.27;96.46;102164.88;4992385;28;20177;-53
2022/08/12 02:32:06;;;;;;;3.33;1.88;;;;;;;13.17;96.67;102161.53;4993287;28;20173;-53
2022/08/12 02:34:32;;;;;;;1.90;1.80;;;;;;;13.01;96.86;102164.69;4992782;28;20178;-52
2022/08/12 02:37:00;;;;;;;2.53;2.20;;;;;;;12.84;97.44;102160.66;4987600;28;20529;-51
2022/08/12 02:39:28;;;;;;;2.50;2.20;;;;;;;12.78;97.89;102156.31;4992998;28;20509;-51
2022/08/12 02:41:57;;;;;;;1.70;1.60;;;;;;;13.01;98.38;102165.59;4993101;28;20217;-52
2022/08/12 02:44:25;;;;;;;2.88;1.90;;;;;;;13.07;98.14;102154.63;4992621;28;20225;-52
2022/08/12 02:46:53;;;;;;;2.08;1.70;;;;;;;13.15;97.86;102157.13;4992734;28;20178;-51
2022/08/12 02:49:30;;;;;;;2.47;1.70;;;;;;;13.09;97.10;102158.16;4993170;28;20185;-53
2022/08/12 02:51:58;;;;;;;2.28;2.00;;;;;;;12.96;96.86;102154.94;4991386;28;20157;-54
2022/08/12 02:54:24;;;;;;;2.17;1.80;;;;;;;12.98;96.89;102165.66;4992511;28;20223;-54
2022/08/12 02:56:51;;;;;;;3.85;1.95;;;;;;;13.07;97.11;102168.09;4992507;28;20174;-52
2022/08/12 02:59:18;;;;;;;4.40;2.03;;;;;;;12.94;97.02;102158.59;4992389;28;20169;-51
2022/08/12 03:01:53;;;;;;;4.70;2.10;;;;;;;12.70;97.94;102157.44;4992206;28;20166;-53
2022/08/12 03:04:39;;;;;;;2.00;1.90;;;;;;;12.68;98.63;102156.56;4992360;28;20564;-51
2022/08/12 03:07:15;;;;;;;2.03;1.85;;;;;;;12.82;98.99;102158.94;4992553;28;20530;-54
2022/08/12 03:09:49;;;;;;;1.90;1.80;;;;;;;12.95;98.53;102158.56;4992348;28;20169;-52
2022/08/12 03:12:17;;;;;;;1.73;1.63;;;;;;;13.01;98.31;102167.38;4992546;28;20641;-52
2022/08/12 03:14:43;;;;;;;2.53;1.67;;;;;;;13.01;97.87;102162.91;4991845;28;20261;-54
2022/08/12 03:17:33;;;;;;;3.40;1.80;;;;;;;13.04;97.24;102167.31;4992590;28;20643;-51
2022/08/12 03:19:59;;;;;;;3.03;1.77;;;;;;;12.85;97.11;102153.47;4986845;28;20272;-54
2022/08/12 03:22:28;;;;;;;2.92;1.90;;;;;;;12.70;97.21;102154.75;4980798;28;20198;-53
2022/08/12 03:24:56;;;;;;;3.53;1.67;;;;;;;12.55;97.85;102150.63;4982357;28;20196;-52
2022/08/12 03:27:24;;;;;;;3.38;2.05;;;;;;;12.45;98.65;102157.19;4991739;28;20177;-52
2022/08/12 03:29:54;;;;;;;1.90;1.80;;;;;;;12.51;98.93;102146.28;4991985;28;20609;-51
2022/08/12 03:32:23;;;;;;;2.53;1.80;;;;;;;12.63;98.99;102145.06;4991964;28;20212;-50
2022/08/12 03:34:49;;;;;;;1.92;1.65;;;;;;;12.73;98.95;102144.78;4991631;28;20528;-50
2022/08/12 03:37:19;;;;;;;1.65;1.45;;;;;;;12.82;98.58;102148.19;4986005;28;20220;-52
2022/08/12 03:39:45;;;;;;;1.77;1.67;;;;;;;12.84;97.98;102146.34;4980238;28;20564;-52
2022/08/12 03:42:36;;;;;;;2.85;1.80;;;;;;;12.78;97.36;102148.22;4972042;28;20182;-51
2022/08/12 04:01:57;;;;;;;1.92;1.80;;;;;;;12.44;98.94;102158.09;4971707;28;20180;-51
2022/08/12 04:04:32;;;;;;;3.08;1.90;;;;;;;12.50;99.01;102161.50;4971721;28;20615;-54
2022/08/12 04:07:08;;;;;;;2.22;2.00;;;;;;;12.49;99.32;102164.25;4971683;28;20185;-51
2022/08/12 04:09:37;;;;;;;1.95;1.85;;;;;;;12.38;99.13;102151.06;4972310;28;20658;-52
2022/08/12 04:14:50;;;;;;;3.63;1.90;;;;;;;12.43;99.49;102150.97;4971370;28;20212;-52
2022/08/12 04:17:17;;;;;;;4.50;2.00;;;;;;;12.49;99.83;102145.44;4971930;28;20710;-53
2022/08/12 04:19:46;;;;;;;2.72;2.22;;;;;;;12.51;99.89;102141.78;4971962;28;20177;-52
2022/08/12 04:22:12;;;;;;;2.10;1.90;;;;;;;12.53;99.69;102147.13;4970204;28;20285;-51
2022/08/12 04:24:39;;;;;;;3.10;1.77;;;;;;;12.66;99.85;102148.56;4977143;28;20537;-51
2022/08/12 04:27:08;;;;;;;1.90;1.80;;;;;;;12.76;99.42;102149.22;4991080;28;20559;-51
2022/08/12 04:29:36;;;;;;;1.85;1.70;;;;;;;12.84;99.33;102157.09;4989841;28;20188;-51
2022/08/12 04:32:01;;;;;;;2.63;1.85;;;;;;;12.76;98.92;102155.47;4991103;28;20176;-52
2022/08/12 04:34:27;;;;;;;2.55;1.77;;;;;;;12.80;98.57;102150.03;4990751;28;20170;-51
2022/08/12 04:36:53;;;;;;;2.38;2.00;;;;;;;12.79;98.59;102157.22;4990834;28;20165;-52
2022/08/12 04:39:20;;;;;;;2.38;2.17;;;;;;;12.86;98.89;102160.63;4990762;28;20204;-53
2022/08/12 04:41:48;;;;;;;4.25;2.05;;;;;;;12.87;98.71;102146.22;4990983;28;20219;-52
2022/08/12 04:44:14;;;;;;;3.10;2.10;;;;;;;13.01;98.54;102146.75;4989276;28;20213;-52
2022/08/12 04:46:40;;;;;;;3.83;2.58;;;;;;;12.92;98.50;102155.97;4991151;28;20180;-51
2022/08/12 04:49:05;;;;;;;3.08;2.30;;;;;;;13.11;99.00;102156.31;4991094;28;20169;-51
2022/08/12 04:51:32;;;;;;;3.80;2.22;;;;;;;13.44;99.64;102156.31;4991288;28;20166;-52
2022/08/12 04:54:00;;;;;;;2.50;2.28;;;;;;;13.81;99.75;102153.41;4990135;28;20260;-51
2022/08/12 04:56:27;;;;;;;3.60;1.98;;;;;;;14.22;99.18;102156.63;4991006;28;20250;-53
2022/08/12 04:58:54;;;;;;;4.10;2.28;;;;;;;14.42;97.33;102147.88;4991297;28;20169;-51
2022/08/12 05:01:19;;;;;;;2.70;2.05;;;;;;;14.76;95.51;102144.09;4990761;28;20189;-52
2022/08/12 05:03:45;;;;;;;4.00;2.03;;;;;;;14.96;93.84;102139.81;4990442;28;20227;-51
2022/08/12 05:06:11;;;;;;;2.42;2.05;;;;;;;15.22;92.78;102136.19;4990870;28;20618;-51
2022/08/12 05:08:36;;;;;;;4.10;2.30;;;;;;;15.38;91.43;102142.75;4991291;28;20177;-51
2022/08/12 05:11:04;;;;;;;1.75;1.63;;;;;;;15.52;90.37;102131.41;4990934;28;20170;-52
2022/08/12 05:13:36;;;;;;;3.95;1.67;;;;;;;15.60;89.78;102133.84;4990387;28;20203;-51
2022/08/12 05:16:03;;;;;;;2.63;1.77;;;;;;;15.74;89.70;102147.75;4989002;28;20166;-51
2022/08/12 05:18:28;;;;;;;2.10;1.70;;;;;;;15.92;89.62;102142.53;4990698;28;20181;-51
2022/08/12 05:20:54;;;;;;;2.28;1.67;;;;;;;15.92;89.25;102142.53;4990605;28;20561;-51
2022/08/12 05:23:21;;;;;;;5.00;2.30;;;;;;;16.13;89.36;102133.56;4989985;28;20208;-51
2022/08/12 05:25:55;;;;;;;5.22;1.90;;;;;;;16.37;88.92;102131.69;4993779;28;20520;-53
2022/08/12 05:28:20;;;;;;;2.10;1.90;;;;;;;16.55;88.53;102131.84;4994334;28;20191;-54
2022/08/12 05:30:46;;;;;;;1.70;1.60;;;;;;;16.72;88.05;102133.84;4994540;28;20525;-52
2022/08/12 05:33:14;;;;;;;2.80;2.10;;;;;;;16.84;87.43;102128.81;4993931;28;20680;-51
2022/08/12 05:35:42;;;;;;;5.43;2.20;;;;;;;17.06;87.12;102122.44;4993959;28;20184;-53
2022/08/12 05:40:53;;;;;;;2.78;1.60;;;;;;;17.38;86.24;102122.78;4994241;28;20180;-51
2022/08/12 05:43:19;;;;;;;4.55;2.20;;;;;;;17.59;85.81;102127.22;4993120;28;20215;-51
2022/08/12 05:45:45;;;;;;;5.40;1.75;;;;;;;17.81;85.03;102131.63;4994470;28;20453;-53
2022/08/12 05:48:12;;;;;;;4.65;1.73;;;;;;;17.98;84.68;102139.00;4993906;28;20187;-54
2022/08/12 05:50:37;;;;;;;2.72;1.90;;;;;;;18.27;83.78;102132.13;4993977;28;20527;-52
2022/08/12 05:53:05;;;;;;;2.35;1.73;;;;;;;18.60;83.46;102132.25;4993325;28;20196;-51
2022/08/12 05:55:31;;;;;;;3.85;1.80;;;;;;;18.89;82.82;102141.66;4994094;28;20176;-52
2022/08/12 05:57:57;;;;;;;2.70;1.83;;;;;;;19.12;82.15;102136.84;4993553;28;20189;-52
2022/08/12 06:00:24;;;;;;;2.53;1.95;;;;;;;19.44;81.38;102123.31;4994121;28;20173;-52
2022/08/12 06:02:59;;;;;;;3.80;2.20;;;;;;;19.72;80.24;102136.31;4993893;28;20300;-51
2022/08/12 06:05:33;;;;;;;2.70;1.80;;;;;;;20.17;78.08;102130.09;4993850;28;20177;-51
2022/08/12 06:07:59;;;;;;;2.30;2.03;;;;;;;20.40;76.54;102130.59;4994113;28;20189;-51
2022/08/12 06:10:25;;;;;;;2.33;2.10;;;;;;;20.51;75.82;102122.69;4993680;28;20248;-51
2022/08/12 06:12:52;;;;;;;4.95;2.15;;;;;;;20.57;75.68;102116.91;4993373;28;20284;-51
2022/08/12 06:15:19;;;;;;;5.55;2.05;;;;;;;20.67;75.59;102136.28;4992576;28;20641;-51
2022/08/12 06:17:45;;;;;;;6.63;2.58;;;;;;;20.96;75.12;102130.91;4993707;28;20248;-52
2022/08/12 06:20:14;;;;;;;2.97;1.65;;;;;;;21.31;75.13;102134.16;4993676;28;20173;-52
2022/08/12 06:22:43;;;;;;;5.07;2.17;;;;;;;21.43;73.78;102128.94;4993172;28;20197;-52
2022/08/12 06:25:10;;;;;;;2.28;1.85;;;;;;;21.18;73.73;102120.41;4993080;28;20595;-52
2022/08/12 06:27:48;;;;;;;4.88;2.00;;;;;;;21.66;72.90;102132.94;4993502;28;20177;-52
2022/08/12 06:30:19;;;;;;;4.75;1.85;;;;;;;21.64;71.70;102127.56;4993788;28;20654;-51
2022/08/12 06:32:48;;;;;;;4.70;1.67;;;;;;;21.91;72.02;102143.13;4992910;28;20305;-53
2022/08/12 06:35:15;;;;;;;3.90;1.70;;;;;;;22.13;70.24;102140.75;4992710;28;20161;-53
2022/08/12 06:37:47;;;;;;;3.50;2.25;;;;;;;22.14;68.79;102134.28;4993394;28;20165;-50
2022/08/12 06:40:13;;;;;;;7.10;2.10;;;;;;;22.14;68.51;102139.75;4992936;28;20173;-52
2022/08/12 06:42:50;;;;;;;6.25;2.15;;;;;;;22.32;70.09;102134.06;4993006;28;20188;-52
2022/08/12 06:45:19;;;;;;;4.72;1.80;;;;;;;22.30;68.54;102131.47;4992138;28;20652;-51
2022/08/12 06:47:45;;;;;;;4.18;2.10;;;;;;;21.64;73.37;102140.34;4991937;28;20222;-52
2022/08/12 06:50:14;;;;;;;3.30;2.20;;;;;;;21.47;73.52;102142.31;4990628;28;20161;-52
2022/08/12 06:52:41;;;;;;;2.15;2.00;;;;;;;21.44;73.29;102137.03;4992043;28;20251;-51
2022/08/12 06:55:10;;;;;;;1.98;1.77;;;;;;;21.68;73.10;102142.75;4992279;28;20157;-51
2022/08/12 06:58:00;;;;;;;4.22;2.25;;;;;;;21.99;71.97;102143.50;4992971;28;20175;-50
2022/08/12 07:00:34;;;;;;;6.05;1.90;;;;;;;23.06;67.15;102137.25;4991635;28;20550;-52
2022/08/12 07:03:02;;;;;;;2.63;1.92;;;;;;;23.48;65.98;102133.31;4991842;28;20254;-51
2022/08/12 07:05:28;;;;;;;2.47;1.50;;;;;;;23.64;63.83;102133.09;4992804;28;20355;-52
2022/08/12 07:07:54;;;;;;;1.70;1.60;;;;;;;23.65;65.24;102132.09;4992712;28;20256;-51
2022/08/12 07:10:24;;;;;;;2.25;1.45;;;;;;;23.26;64.30;102131.22;4992805;28;20168;-50
2022/08/12 07:12:56;;;;;;;3.13;1.60;;;;;;;22.97;66.10;102130.53;4992729;28;20207;-50
2022/08/12 07:15:23;;;;;;;1.50;1.35;;;;;;;23.57;64.12;102129.91;4992135;28;20176;-51
2022/08/12 07:18:06;;;;;;;1.33;1.20;;;;;;;23.90;62.01;102131.22;4992256;28;20176;-51
2022/08/12 07:20:34;;;;;;;2.33;1.52;;;;;;;24.35;59.85;102119.63;4992542;28;20184;-51
2022/08/12 07:23:04;;;;;;;3.75;1.50;;;;;;;24.43;59.33;102125.41;4992254;28;20201;-52
2022/08/12 07:25:30;;;;;;;3.03;1.52;;;;;;;24.64;60.05;102129.28;4991859;28;20165;-50
2022/08/12 07:28:00;;;;;;;4.45;1.52;;;;;;;24.61;58.98;102126.75;4992362;28;20200;-50
2022/08/12 07:30:26;;;;;;;2.97;1.60;;;;;;;24.52;59.97;102129.34;4992308;28;20648;-50
2022/08/12 07:32:53;;;;;;;5.35;1.60;;;;;;;24.71;59.17;102128.78;4992022;28;20220;-51
2022/08/12 07:35:19;;;;;;;3.22;1.50;;;;;;;24.98;58.99;102134.84;4992217;28;20644;-52
2022/08/12 07:37:46;;;;;;;1.67;1.40;;;;;;;25.46;57.37;102125.59;4992037;28;20173;-52
2022/08/12 07:40:12;;;;;;;1.83;1.60;;;;;;;25.18;56.85;102127.78;4992309;28;20184;-50
2022/08/12 07:42:39;;;;;;;2.65;1.70;;;;;;;25.33;58.13;102133.09;4991340;28;20268;-50
2022/08/12 07:45:06;;;;;;;2.40;1.40;;;;;;;25.19;57.77;102135.06;4991910;28;20688;-50
2022/08/12 07:47:33;;;;;;;2.30;1.50;;;;;;;25.46;55.32;102131.09;4991348;28;20177;-50
2022/08/12 07:50:00;;;;;;;5.72;1.77;;;;;;;25.60;56.27;102138.19;4991864;28;20265;-51
2022/08/12 07:52:29;;;;;;;3.50;1.80;;;;;;;25.70;54.24;102133.72;4992251;28;20193;-52
2022/08/12 07:54:55;;;;;;;2.08;1.58;;;;;;;25.27;55.30;102127.06;4991779;28;20169;-52
2022/08/12 07:57:20;;;;;;;3.28;1.83;;;;;;;25.15;55.41;102125.28;4991831;28;20169;-50
2022/08/12 07:59:46;;;;;;;4.90;1.70;;;;;;;25.60;54.86;102132.72;4991756;28;20235;-49
2022/08/12 08:02:11;;;;;;;3.45;1.98;;;;;;;25.80;55.10;102131.97;4991891;28;20256;-50
2022/08/12 08:04:56;;;;;;;6.80;1.70;;;;;;;26.07;54.35;102142.56;4991305;28;20204;-49
2022/08/12 08:07:24;;;;;;;7.40;2.30;;;;;;;25.89;52.27;102136.72;4991531;28;20231;-50
2022/08/12 08:09:52;;;;;;;2.95;1.70;;;;;;;26.06;51.91;102145.41;4973269;28;20181;-50
2022/08/12 08:15:03;;;;;;;4.72;2.03;;;;;;;26.28;52.72;102139.00;4971373;28;20177;-50
2022/08/12 08:17:28;;;;;;;6.72;1.60;;;;;;;25.89;53.55;102138.59;4971049;28;20172;-50
2022/08/12 08:19:54;;;;;;;3.22;1.70;;;;;;;25.92;53.06;102137.47;4970875;28;20174;-50
2022/08/12 08:22:21;;;;;;;3.47;1.70;;;;;;;26.52;53.92;102138.78;4971732;28;20761;-50
2022/08/12 08:24:55;;;;;;;2.20;1.70;;;;;;;26.76;53.05;102144.09;4978987;28;20232;-50
2022/08/12 08:27:21;;;;;;;3.67;1.55;;;;;;;26.40;52.24;102148.97;4991346;28;20315;-50
2022/08/12 08:29:47;;;;;;;7.18;1.80;;;;;;;26.87;53.11;102134.91;4991455;28;20184;-51
2022/08/12 08:32:12;;;;;;;2.38;1.67;;;;;;;26.96;52.23;102128.63;4991558;28;20692;-50
2022/08/12 08:34:38;;;;;;;4.35;1.98;;;;;;;26.81;51.72;102133.59;4990824;28;20168;-50
2022/08/12 08:37:03;;;;;;;5.60;1.70;;;;;;;27.04;52.18;102133.44;4991225;28;20177;-50
2022/08/12 08:39:30;;;;;;;2.90;1.75;;;;;;;26.84;52.45;102135.19;4991221;28;20264;-49
2022/08/12 08:44:41;;;;;;;1.90;1.80;;;;;;;26.70;53.37;102133.66;4990908;28;20193;-50
2022/08/12 08:47:10;;;;;;;2.67;1.88;;;;;;;27.05;52.11;102127.81;4991085;28;20169;-49
2022/08/12 08:49:36;;;;;;;2.35;1.50;;;;;;;26.93;51.24;102129.75;4991291;28;20176;-49
2022/08/12 08:52:03;;;;;;;2.20;1.77;;;;;;;26.62;51.92;102128.78;4991088;28;20256;-50
2022/08/12 08:54:36;;;;;;;3.40;1.55;;;;;;;27.29;50.16;102123.94;4989618;28;20173;-51
2022/08/12 08:57:04;;;;;;;2.20;1.30;;;;;;;27.61;48.63;102115.53;4991137;28;20160;-48
2022/08/12 08:59:30;;;;;;;3.08;1.80;;;;;;;27.77;48.57;102115.03;4994269;28;20181;-48
2022/08/12 09:01:56;;;;;;;4.43;1.60;;;;;;;27.55;47.87;102110.59;4994844;28;20248;-47
2022/08/12 09:04:25;;;;;;;3.80;1.63;;;;;;;27.25;48.52;102114.22;4994681;28;20239;-49
2022/08/12 09:06:53;;;;;;;3.40;1.67;;;;;;;27.77;48.83;102117.78;4995349;28;20266;-49
2022/08/12 09:09:19;;;;;;;2.45;1.73;;;;;;;28.14;48.31;102104.25;4995038;28;20173;-51
2022/08/12 09:14:28;;;;;;;2.78;1.77;;;;;;;28.22;45.81;102099.91;4994255;28;20173;-48
2022/08/12 09:16:53;;;;;;;3.72;1.70;;;;;;;28.09;46.65;102097.41;4994812;28;20239;-49
2022/08/12 09:19:19;;;;;;;6.88;2.10;;;;;;;27.77;49.36;102115.03;4995126;28;20215;-49
2022/08/12 09:21:47;;;;;;;2.88;1.58;;;;;;;28.25;47.51;102108.78;4994782;28;20165;-47
2022/08/12 09:24:14;;;;;;;4.65;1.50;;;;;;;27.72;49.01;102114.53;4994317;28;20267;-47
2022/08/12 09:26:40;;;;;;;2.50;1.85;;;;;;;27.66;50.88;102104.09;4995058;28;20250;-48
2022/08/12 09:29:06;;;;;;;3.17;1.55;;;;;;;28.01;48.19;102109.16;4994834;28;20177;-48
2022/08/12 09:31:34;;;;;;;5.20;1.80;;;;;;;27.81;49.79;102097.16;4994969;28;20181;-47
2022/08/12 09:34:00;;;;;;;4.90;1.83;;;;;;;28.05;49.13;102102.34;4994200;28;20216;-50
2022/08/12 09:36:26;;;;;;;3.15;1.75;;;;;;;27.32;53.90;102101.63;4994844;28;20172;-50
2022/08/12 09:38:51;;;;;;;2.65;1.75;;;;;;;27.68;51.96;102108.47;4994555;28;20173;-49
2022/08/12 09:41:17;;;;;;;4.18;1.77;;;;;;;28.67;48.82;102091.09;4994754;28;20233;-49
2022/08/12 09:46:28;;;;;;;6.45;1.55;;;;;;;28.12;51.02;102099.91;4994402;28;20543;-47
2022/08/12 09:48:53;;;;;;;3.33;1.70;;;;;;;28.09;50.92;102090.03;4994454;28;20260;-47
2022/08/12 09:51:19;;;;;;;1.92;1.40;;;;;;;27.36;52.31;102099.50;4994279;28;20181;-47
2022/08/12 09:53:46;;;;;;;4.68;1.80;;;;;;;27.25;52.84;102097.69;4993799;28;20254;-47
2022/08/12 09:56:16;;;;;;;8.32;1.90;;;;;;;27.71;53.03;102090.78;4993966;28;20197;-49
2022/08/12 09:58:45;;;;;;;3.75;1.70;;;;;;;28.15;53.01;102096.84;4994468;28;20169;-47
2022/08/12 10:01:11;;;;;;;10.55;1.75;;;;;;;27.99;52.70;102089.16;4994081;28;20200;-47
2022/08/12 10:03:37;;;;;;;4.20;1.60;;;;;;;27.82;51.94;102082.41;4993719;28;20618;-49
2022/08/12 10:06:05;;;;;;;10.02;1.88;;;;;;;27.31;53.07;102087.00;4994036;28;20172;-48
2022/08/12 10:08:32;;;;;;;1.63;1.48;;;;;;;27.87;52.61;102084.75;4993772;28;20260;-48
2022/08/12 10:13:45;;;;;;;5.82;1.55;;;;;;;28.84;50.88;102073.81;4993387;28;20204;-49
2022/08/12 10:16:11;;;;;;;4.95;1.80;;;;;;;27.28;51.43;102078.16;4993792;28;20165;-48
2022/08/12 10:18:41;;;;;;;5.22;1.70;;;;;;;27.29;51.79;102079.91;4993809;28;20661;-47
2022/08/12 10:21:18;;;;;;;4.68;1.70;;;;;;;27.94;51.33;102074.91;4993472;28;20718;-47
2022/08/12 10:23:46;;;;;;;2.38;1.63;;;;;;;27.48;51.59;102068.94;4993517;28;20220;-47
2022/08/12 10:31:48;;;;;;;6.43;1.65;;;;;;;28.48;48.18;102059.75;4993736;28;20169;-49
2022/08/12 10:34:13;;;;;;;3.42;1.80;;;;;;;28.64;48.22;102045.34;4993473;28;20677;-48
2022/08/12 10:36:43;;;;;;;2.80;1.70;;;;;;;28.66;45.75;102053.50;4993522;28;20200;-48
2022/08/12 10:39:15;;;;;;;5.07;1.83;;;;;;;28.35;48.66;102040.72;4993402;28;20165;-49
2022/08/12 10:44:24;;;;;;;3.47;1.33;;;;;;;28.93;41.85;102039.78;4993335;28;20271;-48
2022/08/12 10:46:51;;;;;;;2.58;1.20;;;;;;;29.09;42.08;102035.56;4993332;28;20189;-48
2022/08/12 10:49:19;;;;;;;3.83;1.38;;;;;;;28.95;43.64;102037.75;4993329;28;20643;-49
2022/08/12 10:51:48;;;;;;;1.98;1.42;;;;;;;28.60;44.92;102032.91;4993273;28;20181;-48
2022/08/12 10:54:15;;;;;;;2.95;1.20;;;;;;;29.10;45.45;102038.19;4992683;28;20204;-47
2022/08/12 10:56:44;;;;;;;4.03;1.48;;;;;;;29.33;45.74;102027.59;4993345;28;20683;-49
2022/08/12 10:59:10;;;;;;;6.25;1.98;;;;;;;28.87;45.98;102020.22;4992958;28;20276;-47
2022/08/12 11:01:35;;;;;;;2.80;1.55;;;;;;;28.94;46.71;102024.09;4992642;28;20212;-51
2022/08/12 11:04:04;;;;;;;7.43;1.80;;;;;;;28.40;46.88;102003.56;4992616;28;20208;-48
2022/08/12 11:06:29;;;;;;;2.38;1.30;;;;;;;28.05;47.30;102013.31;4992581;28;20185;-50
2022/08/12 11:08:55;;;;;;;2.80;1.38;;;;;;;28.24;46.79;102006.94;4992651;28;20617;-46
2022/08/12 11:11:21;;;;;;;4.50;1.50;;;;;;;28.15;47.82;102009.53;4992976;28;20177;-48
2022/08/12 11:13:47;;;;;;;4.97;1.55;;;;;;;27.95;47.85;102007.81;4991731;28;20208;-46
2022/08/12 11:16:15;;;;;;;7.13;1.52;;;;;;;27.98;47.04;102006.63;4992626;28;20260;-47
2022/08/12 11:18:40;;;;;;;2.90;1.50;;;;;;;28.30;46.95;101993.44;4992416;28;20522;-49
2022/08/12 11:21:06;;;;;;;4.57;1.88;;;;;;;28.17;46.11;101995.63;4992088;28;20177;-52
2022/08/12 11:23:31;;;;;;;3.38;1.70;;;;;;;28.38;46.31;102000.94;4990931;28;20571;-48
2022/08/12 11:25:57;;;;;;;4.30;1.77;;;;;;;27.78;46.87;101994.69;4992160;28;20272;-49
2022/08/12 11:28:22;;;;;;;6.70;1.50;;;;;;;28.41;46.99;102005.34;4992558;28;20267;-49
2022/08/12 11:30:48;;;;;;;5.68;1.58;;;;;;;28.81;45.97;101991.31;4992404;28;20181;-46
2022/08/12 11:33:13;;;;;;;4.00;1.60;;;;;;;28.22;45.82;102000.69;4991595;28;20188;-47
2022/08/12 11:35:42;;;;;;;5.82;1.45;;;;;;;27.95;46.93;101994.03;4992337;28;20188;-48
2022/08/12 11:38:09;;;;;;;5.30;1.60;;;;;;;27.56;46.61;101993.94;4990515;28;20169;-48
2022/08/12 11:40:34;;;;;;;3.75;1.50;;;;;;;28.09;46.49;101979.81;4992375;28;20176;-50
2022/08/12 11:43:00;;;;;;;9.30;1.80;;;;;;;28.53;45.98;101984.88;4991419;28;20676;-52
2022/08/12 11:45:27;;;;;;;6.43;1.60;;;;;;;28.14;45.21;101985.75;4992226;28;20239;-48
2022/08/12 11:47:58;;;;;;;4.15;1.60;;;;;;;28.51;45.03;101989.66;4991266;28;20792;-48
2022/08/12 11:50:24;;;;;;;4.15;1.42;;;;;;;28.27;46.30;101987.34;4991030;28;20177;-49
2022/08/12 11:52:50;;;;;;;7.43;1.63;;;;;;;27.68;46.60;101986.41;4991366;28;20546;-53
2022/08/12 11:55:17;;;;;;;2.35;1.45;;;;;;;28.42;44.91;101985.88;4989442;28;20177;-49
2022/08/12 11:57:51;;;;;;;3.55;1.45;;;;;;;28.09;45.57;101978.94;4991630;28;20173;-48
2022/08/12 12:00:18;;;;;;;6.40;1.58;;;;;;;28.08;45.02;101975.31;4991130;28;20611;-47
2022/08/12 12:02:43;;;;;;;3.72;1.60;;;;;;;28.57;44.21;101975.28;4991388;28;20204;-47
2022/08/12 12:05:09;;;;;;;3.33;1.40;;;;;;;28.47;44.13;101975.28;4990727;28;20204;-47
2022/08/12 12:07:41;;;;;;;4.25;2.00;;;;;;;29.06;43.35;101975.09;4990971;28;20628;-46
2022/08/12 12:10:07;;;;;;;2.70;1.50;;;;;;;28.51;44.65;101975.88;4986694;28;20200;-48
2022/08/12 12:12:34;;;;;;;5.28;1.67;;;;;;;28.75;43.55;101964.34;4971474;28;20201;-48
2022/08/12 12:15:00;;;;;;;4.47;1.90;;;;;;;28.75;43.10;101978.13;4971433;28;20166;-47
2022/08/12 12:17:26;;;;;;;5.57;1.70;;;;;;;28.53;42.93;101966.47;4971612;28;20205;-46
2022/08/12 12:19:52;;;;;;;2.08;1.67;;;;;;;29.12;42.89;101977.28;4971514;28;20170;-48
2022/08/12 12:22:19;;;;;;;5.60;1.73;;;;;;;29.03;42.96;101976.28;4971722;28;20261;-46
2022/08/12 12:24:46;;;;;;;3.90;1.48;;;;;;;28.30;44.47;101968.63;4977855;28;20654;-49
2022/08/12 12:27:12;;;;;;;4.90;1.80;;;;;;;28.96;43.89;101966.88;4990991;28;20661;-48
2022/08/12 12:29:37;;;;;;;2.60;1.60;;;;;;;28.87;43.01;101962.28;4991072;28;20187;-48
2022/08/12 12:32:04;;;;;;;4.18;1.80;;;;;;;28.88;42.33;101952.97;4978541;28;20196;-49
2022/08/12 12:34:29;;;;;;;5.82;1.55;;;;;;;28.29;44.41;101961.34;4971753;28;20248;-47
2022/08/12 12:36:55;;;;;;;3.33;1.58;;;;;;;28.68;44.47;101966.81;4969740;28;20261;-50
2022/08/12 12:39:20;;;;;;;2.58;1.40;;;;;;;28.86;43.26;101968.81;4971077;28;20185;-48
2022/08/12 12:41:46;;;;;;;2.17;1.50;;;;;;;28.66;43.67;101976.28;4972030;28;20209;-48
2022/08/12 12:44:11;;;;;;;3.35;1.52;;;;;;;28.83;43.83;101966.34;4971208;28;20295;-48
2022/08/12 12:46:36;;;;;;;1.38;1.27;;;;;;;29.15;42.99;101965.97;4971627;28;20174;-47
2022/08/12 12:49:02;;;;;;;7.55;1.77;;;;;;;28.87;43.17;101963.13;4954286;28;20181;-47
2022/08/12 12:51:27;;;;;;;6.25;1.50;;;;;;;28.67;43.58;101956.81;4972038;28;20216;-49
2022/08/12 12:53:55;;;;;;;5.65;1.60;;;;;;;28.38;44.19;101951.34;4971590;28;20298;-48
2022/08/12 12:56:22;;;;;;;11.55;1.88;;;;;;;28.30;44.67;101953.97;4971788;28;20197;-48
2022/08/12 12:58:50;;;;;;;4.82;1.80;;;;;;;28.89;43.50;101950.06;4971984;28;20193;-51
2022/08/12 13:01:25;;;;;;;4.82;1.60;;;;;;;28.92;43.28;101949.75;4971552;28;20646;-49
2022/08/12 13:03:55;;;;;;;2.95;1.55;;;;;;;28.84;42.50;101946.00;4971381;28;20216;-46
2022/08/12 13:06:24;;;;;;;2.60;1.70;;;;;;;28.59;43.18;101951.19;4971683;28;20169;-47
2022/08/12 13:08:53;;;;;;;5.10;1.65;;;;;;;28.29;43.03;101947.56;4971848;28;20281;-47
2022/08/12 13:11:20;;;;;;;4.22;1.70;;;;;;;28.75;42.23;101956.06;4972003;28;20505;-49
2022/08/12 13:13:48;;;;;;;5.35;1.70;;;;;;;28.32;42.71;101943.69;4971345;28;20260;-49